Suttons Bay, MI (49682)

9:47 AM EDT on August 29, 2015 (GMT -0400)
South Shore Drive | | Change Station
CLOSE
Current Station
Personal Weather Station
Location: Suttons Bay, MI
Elevation: 597 ft
Nearby Weather Stations

Elev 597 ft 44.97 °N, 85.64 °W | Updated 6 seconds ago

Overcast
Overcast
61.6 °F
Feels Like 61.6 °F
N
0.0
Wind Variable Wind from ESE
Gusts 0.0 mph

Today
High -- | Low -- °F
--% Chance of Precip.
Yesterday
High -- | Low -- °F
Precip. -- in
7:00 AM 8:25 PM
Full, 100% visible
Pressure 30.12 in
Visibility 7.0 miles
Clouds Mostly Cloudy 700 ft
Overcast 5000 ft
Dew Point 61 °F
Humidity 97%
Rainfall 0.15 in
Snow Depth Not available.
UV 1 out of 12
Pollen 9.00 out of 12
Air Quality Not available.
Flu Activity Not available.
SPECI KTVC 291325Z 00000KT 7SM BKN007 OVC050 17/15 A3012 RMK AO2 RAE1259 P0000 T01670150
Pressure 30.12 in
Visibility 7.0 miles
Clouds Mostly Cloudy 700 ft
Overcast 5000 ft
Dew Point 61 °F
Humidity 97%
Rainfall 0.15 in
Snow Depth Not available.
UV 1 out of 12
Pollen 9.00 out of 12
Air Quality Not available.
Flu Activity Not available.
SPECI KTVC 291325Z 00000KT 7SM BKN007 OVC050 17/15 A3012 RMK AO2 RAE1259 P0000 T01670150
Nowcast | as of 9:00 am EDT on August 29, 2015

At 10 am...occasional showers. Temperature 65. South winds 7 mph. At 12 PM...cloudy. Scattered showers. Temperature 67. South winds 7 mph. At 2 PM...cloudy. Scattered showers. Temperature 69. Southwest winds 7 mph. At 4 PM...mostly cloudy. Scattered showers. Temperature 69. West winds 8 mph.

×

10-Day Weather Forecast

×

Almanac

Astronomy

Aug. 29, 2015 Rise Set
Actual Time
Civil Twilight
Nautical Twilight
Astronomical Twilight
Moon
Length of Visible Light
Length of Day
Tomorrow will be .
, % of the Moon is Illuminated

Today's Extremes

State Highs State Lows

Community

WunderPhotos

Upload Photos

1,850,686 photos uploaded!

WunderBlogs® & News

Nearby

Air Quality

  Air Quality AQ Index Pollutant
Not available.

Snow Depth

Station Depth Elevation

Earthquake Activity

City Distance Mag. Time & Date
Minimum magnitude displayed is 2.5.

Coastal Water Temperatures

Place Temperature

Stations

Nearby Weather Stations

Station Location Temp. Windchill Dew Point Humidity Wind Precip. Elev Updated Type